Terminal Aerodrome Forecast
Issued by NWS

Home | Current Version | Previous Version | Text Only | Print | Product List | Glossary On
Versions: 1 2 3 4 5 6 7 8 9 10 11 12 13 14 15 16 17 18 19 20 21 22
778
FTUS46 KSEW 131753
TAFCLM
TAF
KCLM 131753Z 1318/1418 08005KT P6SM OVC090
     FM132100 06005KT 6SM -RA BR SCT015 OVC060
     FM140100 29007KT P6SM VCSH SCT030 BKN050 OVC080
     FM141200 10004KT 6SM -RA BR SCT012 BKN035 OVC050=

USA.gov is the U.S. government's official web portal to all federal, state and local government web resources and services.